createdAt,value
2023-05-14T00:00:00.153Z, 99
2023-05-14T00:02:00.198Z, 98.1
2023-05-14T00:04:00.267Z, 96.8
2023-05-14T00:06:00.145Z, 96.3
2023-05-14T00:08:00.169Z, 96.7
2023-05-14T00:10:00.137Z, 97.5
2023-05-14T00:12:00.107Z, 97.9
2023-05-14T00:14:00.126Z, 98.2
2023-05-14T00:16:00.169Z, 97.8
2023-05-14T00:18:00.166Z, 97.4
2023-05-14T00:20:00.175Z, 97
2023-05-14T00:22:00.137Z, 97
2023-05-14T00:24:00.070Z, 97
2023-05-14T00:26:00.080Z, 96.5
2023-05-14T00:28:00.067Z, 94.6
2023-05-14T00:30:00.075Z, 94.5
2023-05-14T00:32:00.057Z, 94.3
2023-05-14T00:34:00.066Z, 94.8
2023-05-14T00:36:00.061Z, 94.9
2023-05-14T00:38:00.052Z, 94.9
2023-05-14T00:40:00.052Z, 95.5
2023-05-14T00:42:00.062Z, 95.6
2023-05-14T00:44:00.063Z, 96.2
2023-05-14T00:46:00.062Z, 97.4
2023-05-14T00:48:00.109Z, 98.2
2023-05-14T00:50:00.044Z, 97.6
2023-05-14T00:52:00.048Z, 97.7
2023-05-14T00:54:00.085Z, 97.3
2023-05-14T00:56:00.133Z, 97.1
2023-05-14T00:58:00.117Z, 96.9
2023-05-14T01:00:00.228Z, 96.8
2023-05-14T01:02:00.113Z, 96.1
2023-05-14T01:04:00.304Z, 95.9
2023-05-14T01:06:00.160Z, 96.7
2023-05-14T01:08:00.118Z, 98
2023-05-14T01:10:00.174Z, 99
2023-05-14T01:12:00.175Z, 99.6
2023-05-14T01:14:00.101Z, 100
2023-05-14T01:16:00.227Z, 100
2023-05-14T01:18:00.164Z, 100
2023-05-14T01:20:00.189Z, 100
2023-05-14T01:22:00.120Z, 100
2023-05-14T01:24:00.059Z, 100
2023-05-14T01:26:00.074Z, 100
2023-05-14T01:28:00.055Z, 100
2023-05-14T01:30:00.051Z, 100
2023-05-14T01:32:00.234Z, 100
2023-05-14T01:34:00.059Z, 100
2023-05-14T01:36:00.056Z, 100
2023-05-14T01:38:00.021Z, 100
2023-05-14T01:40:00.036Z, 100
2023-05-14T01:42:00.059Z, 100
2023-05-14T01:44:00.047Z, 100
2023-05-14T01:46:00.127Z, 100
2023-05-14T01:48:00.075Z, 100
2023-05-14T01:50:00.059Z, 100
2023-05-14T01:52:00.049Z, 100
2023-05-14T01:54:00.140Z, 100
2023-05-14T01:56:00.131Z, 100
2023-05-14T01:58:00.091Z, 100
2023-05-14T02:00:00.118Z, 100
2023-05-14T02:02:00.174Z, 100
2023-05-14T02:04:00.196Z, 100
2023-05-14T02:06:00.121Z, 100
2023-05-14T02:08:00.095Z, 100
2023-05-14T02:10:00.149Z, 100
2023-05-14T02:12:00.123Z, 100
2023-05-14T02:14:00.128Z, 100
2023-05-14T02:16:00.146Z, 100
2023-05-14T02:18:00.124Z, 100
2023-05-14T02:20:00.147Z, 100
2023-05-14T02:22:00.106Z, 100
2023-05-14T02:24:00.072Z, 100
2023-05-14T02:26:00.069Z, 100
2023-05-14T02:28:00.056Z, 100
2023-05-14T02:30:00.062Z, 100
2023-05-14T02:32:00.052Z, 100
2023-05-14T02:34:00.057Z, 100
2023-05-14T02:36:00.070Z, 100
2023-05-14T02:38:00.040Z, 100
2023-05-14T02:40:00.069Z, 100
2023-05-14T02:42:00.066Z, 100
2023-05-14T02:44:00.132Z, 100
2023-05-14T02:46:00.052Z, 99.7
2023-05-14T02:48:00.145Z, 99.5
2023-05-14T02:50:00.055Z, 99.3
2023-05-14T02:52:00.040Z, 99
2023-05-14T02:54:00.106Z, 98.3
2023-05-14T02:56:00.146Z, 98.5
2023-05-14T02:58:00.117Z, 98
2023-05-14T03:00:00.191Z, 97.3
2023-05-14T03:02:00.212Z, 96.5
2023-05-14T03:04:00.121Z, 96.5
2023-05-14T03:06:00.176Z, 97.1
2023-05-14T03:08:00.142Z, 97
2023-05-14T03:10:00.205Z, 96.7
2023-05-14T03:12:00.135Z, 96.9
2023-05-14T03:14:00.101Z, 96.6
2023-05-14T03:16:00.153Z, 96.6
2023-05-14T03:18:00.190Z, 97.4
2023-05-14T03:20:00.151Z, 97.6
2023-05-14T03:22:00.114Z, 98.1
2023-05-14T03:24:00.127Z, 99.5
2023-05-14T03:26:00.075Z, 100
2023-05-14T03:28:00.063Z, 100
2023-05-14T03:30:00.055Z, 100
2023-05-14T03:32:00.062Z, 100
2023-05-14T03:34:00.108Z, 100
2023-05-14T03:36:00.064Z, 100
2023-05-14T03:38:00.095Z, 100
2023-05-14T03:40:00.050Z, 100
2023-05-14T03:42:00.127Z, 100
2023-05-14T03:44:00.094Z, 100
2023-05-14T03:46:00.046Z, 100
2023-05-14T03:48:00.198Z, 100
2023-05-14T03:50:00.054Z, 100
2023-05-14T03:52:00.045Z, 100
2023-05-14T03:54:00.147Z, 100
2023-05-14T03:56:00.103Z, 100
2023-05-14T03:58:00.158Z, 100
2023-05-14T04:00:00.165Z, 100
2023-05-14T04:02:00.118Z, 100
2023-05-14T04:04:00.250Z, 100
2023-05-14T04:06:00.160Z, 100
2023-05-14T04:08:00.132Z, 100
2023-05-14T04:10:01.866Z, 100
2023-05-14T04:12:00.173Z, 100
2023-05-14T04:14:00.110Z, 100
2023-05-14T04:16:00.221Z, 100
2023-05-14T04:18:00.291Z, 100
2023-05-14T04:20:00.118Z, 100
2023-05-14T04:22:00.105Z, 100
2023-05-14T04:24:00.192Z, 100
2023-05-14T04:26:00.239Z, 100
2023-05-14T04:28:00.147Z, 100
2023-05-14T04:30:00.244Z, 100
2023-05-14T04:32:00.342Z, 100
2023-05-14T04:34:00.071Z, 100
2023-05-14T04:36:00.090Z, 100
2023-05-14T04:38:00.054Z, 100
2023-05-14T04:40:00.056Z, 100
2023-05-14T04:42:00.108Z, 100
2023-05-14T04:44:00.058Z, 100
2023-05-14T04:46:00.102Z, 100
2023-05-14T04:48:00.145Z, 100
2023-05-14T04:50:00.127Z, 100
2023-05-14T04:52:00.063Z, 100
2023-05-14T04:54:00.231Z, 100
2023-05-14T04:56:00.142Z, 100
2023-05-14T04:58:00.109Z, 100
2023-05-14T05:00:00.143Z, 100
2023-05-14T05:02:00.124Z, 100
2023-05-14T05:04:00.201Z, 100
2023-05-14T05:06:00.158Z, 100
2023-05-14T05:08:00.194Z, 100
2023-05-14T05:10:00.193Z, 100
2023-05-14T05:12:00.150Z, 100
2023-05-14T05:14:00.109Z, 100
2023-05-14T05:16:00.169Z, 100
2023-05-14T05:18:00.193Z, 100
2023-05-14T05:20:00.141Z, 100
2023-05-14T05:22:00.123Z, 100
2023-05-14T05:24:00.063Z, 100
2023-05-14T05:26:00.056Z, 99
2023-05-14T05:28:00.052Z, 99.2
2023-05-14T05:30:00.062Z, 100
2023-05-14T05:32:00.113Z, 100
2023-05-14T05:34:00.071Z, 100
2023-05-14T05:36:00.122Z, 100
2023-05-14T05:38:01.528Z, 100
2023-05-14T05:40:00.077Z, 100
2023-05-14T05:42:00.083Z, 100
2023-05-14T05:44:00.054Z, 100
2023-05-14T05:46:00.173Z, 100
2023-05-14T05:48:00.099Z, 99.9
2023-05-14T05:50:00.073Z, 99.3
2023-05-14T05:52:00.044Z, 99.9
2023-05-14T05:54:00.118Z, 100
2023-05-14T05:56:00.106Z, 100
2023-05-14T05:58:00.150Z, 100
2023-05-14T06:00:00.167Z, 100
2023-05-14T06:02:00.145Z, 100
2023-05-14T06:04:00.161Z, 100
2023-05-14T06:06:00.146Z, 100
2023-05-14T06:08:00.131Z, 100
2023-05-14T06:10:00.173Z, 100
2023-05-14T06:12:00.193Z, 100
2023-05-14T06:14:00.205Z, 100
2023-05-14T06:16:00.180Z, 100
2023-05-14T06:18:00.236Z, 100
2023-05-14T06:20:00.142Z, 100
2023-05-14T06:22:00.130Z, 100
2023-05-14T06:24:00.105Z, 100
2023-05-14T06:26:00.074Z, 100
2023-05-14T06:28:00.069Z, 100
2023-05-14T06:30:00.117Z, 100
2023-05-14T06:32:00.184Z, 100
2023-05-14T06:34:00.085Z, 99.5
2023-05-14T06:36:00.126Z, 99.8
2023-05-14T06:38:00.053Z, 100
2023-05-14T06:40:00.257Z, 100
2023-05-14T06:42:00.076Z, 100
2023-05-14T06:44:00.057Z, 100
2023-05-14T06:46:00.130Z, 100
2023-05-14T06:48:00.183Z, 100
2023-05-14T06:50:00.107Z, 100
2023-05-14T06:52:00.042Z, 100
2023-05-14T06:54:00.149Z, 99
2023-05-14T06:56:00.098Z, 98
2023-05-14T06:58:00.116Z, 97.7
2023-05-14T07:00:01.581Z, 97.3
2023-05-14T07:02:00.183Z, 96.7
2023-05-14T07:04:00.220Z, 96.7
2023-05-14T07:06:00.117Z, 96.7
2023-05-14T07:08:00.121Z, 97.2
2023-05-14T07:10:00.167Z, 97
2023-05-14T07:12:00.139Z, 95.6
2023-05-14T07:14:00.140Z, 94
2023-05-14T07:16:00.158Z, 90
2023-05-14T07:18:00.271Z, 90.3
2023-05-14T07:20:00.174Z, 89.3
2023-05-14T07:22:00.126Z, 85.9
2023-05-14T07:24:00.073Z, 85.6
2023-05-14T07:26:00.051Z, 85.8
2023-05-14T07:28:00.044Z, 88.9
2023-05-14T07:30:00.069Z, 90.4
2023-05-14T07:32:00.046Z, 89.4
2023-05-14T07:34:00.057Z, 91.8
2023-05-14T07:36:00.100Z, 92.7
2023-05-14T07:38:00.111Z, 92.5
2023-05-14T07:40:00.078Z, 91.1
2023-05-14T07:42:00.041Z, 89.9
2023-05-14T07:44:00.127Z, 88.4
2023-05-14T07:46:00.051Z, 88.5
2023-05-14T07:48:00.252Z, 87.8
2023-05-14T07:50:00.041Z, 86.2
2023-05-14T07:52:00.069Z, 84.3
2023-05-14T07:54:00.107Z, 85.1
2023-05-14T07:56:00.184Z, 86.1
2023-05-14T07:58:00.172Z, 86
2023-05-14T08:00:00.201Z, 85.8
2023-05-14T08:02:00.191Z, 84.4
2023-05-14T08:04:00.287Z, 83.1
2023-05-14T08:06:00.161Z, 79.7
2023-05-14T08:08:00.175Z, 78.4
2023-05-14T08:10:00.156Z, 80
2023-05-14T08:12:00.137Z, 77.6
2023-05-14T08:14:00.136Z, 79.5
2023-05-14T08:16:00.131Z, 78.4
2023-05-14T08:18:00.279Z, 76
2023-05-14T08:20:00.177Z, 75.5
2023-05-14T08:22:00.149Z, 77.4
2023-05-14T08:24:00.090Z, 75.7
2023-05-14T08:26:00.085Z, 74.7
2023-05-14T08:28:00.055Z, 74.6
2023-05-14T08:30:00.078Z, 74.4
2023-05-14T08:32:05.787Z, 75.3
2023-05-14T08:34:00.072Z, 75.3
2023-05-14T08:36:00.063Z, 74.6
2023-05-14T08:38:00.110Z, 78.7
2023-05-14T08:40:00.098Z, 76.3
2023-05-14T08:42:00.136Z, 74.7
2023-05-14T08:44:00.047Z, 72.9
2023-05-14T08:46:00.075Z, 73.6
2023-05-14T08:48:00.284Z, 73.1
2023-05-14T08:50:00.066Z, 74.9
2023-05-14T08:52:00.041Z, 78.8
2023-05-14T08:54:00.117Z, 81
2023-05-14T08:56:00.145Z, 79.1
2023-05-14T08:58:00.133Z, 79.6
2023-05-14T09:00:00.185Z, 81.5
2023-05-14T09:02:00.186Z, 81.6
2023-05-14T09:04:00.156Z, 76.1
2023-05-14T09:06:00.376Z, 71.2
2023-05-14T09:08:00.160Z, 71
2023-05-14T09:10:00.254Z, 71.1
2023-05-14T09:12:00.140Z, 70.5
2023-05-14T09:14:00.137Z, 69.3
2023-05-14T09:16:00.174Z, 66.4
2023-05-14T09:18:00.184Z, 63.7
2023-05-14T09:20:00.139Z, 63.1
2023-05-14T09:22:00.140Z, 61.9
2023-05-14T09:24:00.120Z, 60.4
2023-05-14T09:26:00.085Z, 60.4
2023-05-14T09:28:00.132Z, 60.2
2023-05-14T09:30:00.066Z, 60.2
2023-05-14T09:32:00.216Z, 61
2023-05-14T09:34:00.136Z, 61.1
2023-05-14T09:36:00.130Z, 59.9
2023-05-14T09:38:00.089Z, 59.7
2023-05-14T09:40:00.068Z, 60.1
2023-05-14T09:42:00.112Z, 60.7
2023-05-14T09:44:00.049Z, 62.3
2023-05-14T09:46:00.060Z, 59.6
2023-05-14T09:48:00.157Z, 59.3
2023-05-14T09:50:00.059Z, 59.6
2023-05-14T09:52:00.050Z, 60.5
2023-05-14T09:54:00.115Z, 59.2
2023-05-14T09:56:00.107Z, 59.6
2023-05-14T09:58:00.091Z, 58.8
2023-05-14T10:00:00.167Z, 56.7
2023-05-14T10:02:00.142Z, 54.9
2023-05-14T10:04:00.304Z, 54.6
2023-05-14T10:06:00.125Z, 54.8
2023-05-14T10:08:00.121Z, 54.4
2023-05-14T10:10:00.180Z, 53.8
2023-05-14T10:12:00.147Z, 54.8
2023-05-14T10:14:00.133Z, 54.4
2023-05-14T10:16:00.139Z, 52.4
2023-05-14T10:18:00.222Z, 52.8
2023-05-14T10:20:00.174Z, 53.6
2023-05-14T10:22:00.142Z, 56.2
2023-05-14T10:24:00.065Z, 54.7
2023-05-14T10:26:00.056Z, 54
2023-05-14T10:28:00.103Z, 54.7
2023-05-14T10:30:00.069Z, 56
2023-05-14T10:32:00.061Z, 56.6
2023-05-14T10:34:00.065Z, 55
2023-05-14T10:36:00.057Z, 52.7
2023-05-14T10:38:00.030Z, 51.4
2023-05-14T10:40:00.137Z, 50.2
2023-05-14T10:42:00.058Z, 48.1
2023-05-14T10:44:00.068Z, 50.2
2023-05-14T10:46:00.044Z, 52.4
2023-05-14T10:48:00.182Z, 52.8
2023-05-14T10:50:00.056Z, 53.2
2023-05-14T10:52:00.053Z, 54.5
2023-05-14T10:54:00.157Z, 54.5
2023-05-14T10:56:00.116Z, 52.2
2023-05-14T10:58:00.108Z, 52
2023-05-14T11:00:00.168Z, 52.6
2023-05-14T11:02:00.177Z, 52.8
2023-05-14T11:04:00.184Z, 52.1
2023-05-14T11:06:00.132Z, 50.9
2023-05-14T11:08:00.130Z, 49.5
2023-05-14T11:10:00.130Z, 48.5
2023-05-14T11:12:00.155Z, 48
2023-05-14T11:14:00.131Z, 48.8
2023-05-14T11:16:08.796Z, 50.6
2023-05-14T11:18:00.213Z, 51.9
2023-05-14T11:20:00.174Z, 51.4
2023-05-14T11:22:00.103Z, 53
2023-05-14T11:24:00.127Z, 52.7
2023-05-14T11:26:00.180Z, 49.4
2023-05-14T11:28:00.111Z, 50.1
2023-05-14T11:30:00.126Z, 50.9
2023-05-14T11:32:00.169Z, 51.2
2023-05-14T11:34:00.127Z, 50.7
2023-05-14T11:36:00.083Z, 50.3
2023-05-14T11:38:00.110Z, 50.7
2023-05-14T11:40:00.108Z, 50.5
2023-05-14T11:42:00.133Z, 51
2023-05-14T11:44:00.123Z, 48.2
2023-05-14T11:46:00.209Z, 50.1
2023-05-14T11:48:00.145Z, 49.1
2023-05-14T11:50:00.107Z, 49.4
2023-05-14T11:52:00.108Z, 48.4
2023-05-14T11:54:00.108Z, 51.4
2023-05-14T11:56:00.123Z, 48.5
2023-05-14T11:58:00.114Z, 48.4
2023-05-14T12:00:00.141Z, 47.6
2023-05-14T12:02:00.078Z, 47.9
2023-05-14T12:04:00.350Z, 47.5
2023-05-14T12:06:00.155Z, 46.8
2023-05-14T12:08:00.096Z, 46.1
2023-05-14T12:10:00.120Z, 46.4
2023-05-14T12:12:00.118Z, 47.3
2023-05-14T12:14:00.128Z, 44.5
2023-05-14T12:16:00.138Z, 43.5
2023-05-14T12:18:02.135Z, 42.7
2023-05-14T12:20:00.161Z, 42.9
2023-05-14T12:22:00.111Z, 46.3
2023-05-14T12:24:00.099Z, 47.8
2023-05-14T12:26:00.069Z, 45.2
2023-05-14T12:28:00.061Z, 46.3
2023-05-14T12:30:09.166Z, 48.6
2023-05-14T12:32:00.054Z, 48.5
2023-05-14T12:34:00.065Z, 46.9
2023-05-14T12:36:04.786Z, 46.5
2023-05-14T12:38:00.051Z, 46.7
2023-05-14T12:40:00.079Z, 44.5
2023-05-14T12:42:00.065Z, 43.7
2023-05-14T12:44:00.059Z, 43.8
2023-05-14T12:46:00.054Z, 43.8
2023-05-14T12:48:00.125Z, 41.8
2023-05-14T12:50:00.063Z, 40.7
2023-05-14T12:52:17.443Z, 41.2
2023-05-14T12:54:00.112Z, 40.5
2023-05-14T12:56:00.128Z, 41.5
2023-05-14T12:58:00.139Z, 41.7
2023-05-14T13:00:00.168Z, 41
2023-05-14T13:02:00.132Z, 41
2023-05-14T13:04:00.214Z, 41.5
2023-05-14T13:06:00.179Z, 43.5
2023-05-14T13:08:00.202Z, 44.3
2023-05-14T13:10:00.217Z, 42.9
2023-05-14T13:12:00.146Z, 44.9
2023-05-14T13:14:00.134Z, 46.5
2023-05-14T13:16:00.144Z, 46.8
2023-05-14T13:18:00.179Z, 45.3
2023-05-14T13:20:00.158Z, 46.1
2023-05-14T13:22:00.117Z, 44.7
2023-05-14T13:24:00.153Z, 43.3
2023-05-14T13:26:00.116Z, 42.5
2023-05-14T13:28:00.062Z, 42.2
2023-05-14T13:30:00.083Z, 44.3
2023-05-14T13:32:00.060Z, 43.9
2023-05-14T13:34:00.059Z, 44.5
2023-05-14T13:36:00.103Z, 43.9
2023-05-14T13:38:00.069Z, 44
2023-05-14T13:40:00.052Z, 44
2023-05-14T13:42:00.061Z, 43.5
2023-05-14T13:44:00.051Z, 43.2
2023-05-14T13:46:00.111Z, 42.5
2023-05-14T13:48:00.158Z, 43.9
2023-05-14T13:50:00.044Z, 42.6
2023-05-14T13:52:00.053Z, 44.6
2023-05-14T13:54:00.194Z, 48.1
2023-05-14T13:56:00.153Z, 52
2023-05-14T13:58:00.121Z, 58.1
2023-05-14T14:00:00.189Z, 63.2
2023-05-14T14:02:00.264Z, 65.9
2023-05-14T14:04:00.154Z, 63.9
2023-05-14T14:06:00.228Z, 62.1
2023-05-14T14:08:04.571Z, 61.2
2023-05-14T14:10:00.121Z, 60.2
2023-05-14T14:12:00.141Z, 61.6
2023-05-14T14:14:00.116Z, 61.8
2023-05-14T14:16:00.174Z, 60.1
2023-05-14T14:18:00.156Z, 58.2
2023-05-14T14:20:00.143Z, 53.2
2023-05-14T14:22:00.134Z, 49.2
2023-05-14T14:24:00.130Z, 47.2
2023-05-14T14:26:00.086Z, 45.2
2023-05-14T14:28:00.054Z, 44.1
2023-05-14T14:30:00.078Z, 40.7
2023-05-14T14:32:00.136Z, 41.6
2023-05-14T14:34:00.067Z, 43.4
2023-05-14T14:36:00.063Z, 41.9
2023-05-14T14:38:00.049Z, 42.5
2023-05-14T14:40:00.069Z, 41.1
2023-05-14T14:42:00.068Z, 46.8
2023-05-14T14:44:00.064Z, 49.5
2023-05-14T14:46:00.156Z, 50.7
2023-05-14T14:48:00.191Z, 53
2023-05-14T14:50:00.061Z, 53.2
2023-05-14T14:52:00.088Z, 52.4
2023-05-14T14:54:00.144Z, 52
2023-05-14T14:56:00.128Z, 53.7
2023-05-14T14:58:00.114Z, 53.6
2023-05-14T15:00:02.162Z, 53.3
2023-05-14T15:02:00.112Z, 52.1
2023-05-14T15:04:00.125Z, 51.4
2023-05-14T15:06:00.130Z, 50.1
2023-05-14T15:08:00.143Z, 50.3
2023-05-14T15:10:00.221Z, 50.7
2023-05-14T15:12:00.129Z, 50.1
2023-05-14T15:14:00.130Z, 52.4
2023-05-14T15:16:00.141Z, 52.7
2023-05-14T15:18:00.141Z, 53.7
2023-05-14T15:20:00.128Z, 53.2
2023-05-14T15:22:00.132Z, 52.8
2023-05-14T15:24:00.103Z, 55.4
2023-05-14T15:26:00.075Z, 55.3
2023-05-14T15:28:00.104Z, 56
2023-05-14T15:30:00.088Z, 54
2023-05-14T15:32:00.154Z, 55
2023-05-14T15:34:00.089Z, 55.7
2023-05-14T15:36:00.126Z, 56.2
2023-05-14T15:38:00.049Z, 55.5
2023-05-14T15:40:00.072Z, 54.9
2023-05-14T15:42:00.095Z, 53.4
2023-05-14T15:44:00.066Z, 53
2023-05-14T15:46:00.132Z, 53.3
2023-05-14T15:48:00.156Z, 55.7
2023-05-14T15:50:00.128Z, 55.3
2023-05-14T15:52:00.053Z, 58.5
2023-05-14T15:54:00.121Z, 58.9
2023-05-14T15:56:00.090Z, 60.4
2023-05-14T15:58:00.086Z, 59.4
2023-05-14T16:00:00.108Z, 58.1
2023-05-14T16:02:00.123Z, 57.1
2023-05-14T16:04:00.102Z, 57.8
2023-05-14T16:06:00.127Z, 57.4
2023-05-14T16:08:00.126Z, 57
2023-05-14T16:10:00.096Z, 57.7
2023-05-14T16:12:00.124Z, 62.4
2023-05-14T16:14:00.085Z, 65.5
2023-05-14T16:16:00.172Z, 66.3
2023-05-14T16:18:00.191Z, 63.3
2023-05-14T16:20:00.217Z, 65.1
2023-05-14T16:22:00.116Z, 67.7
2023-05-14T16:24:00.124Z, 70.8
2023-05-14T16:26:00.081Z, 70.9
2023-05-14T16:28:00.089Z, 71.6
2023-05-14T16:30:00.112Z, 73.2
2023-05-14T16:32:00.414Z, 73.6
2023-05-14T16:34:00.083Z, 73.6
2023-05-14T16:36:00.085Z, 71.5
2023-05-14T16:38:00.102Z, 69.8
2023-05-14T16:40:00.061Z, 69.2
2023-05-14T16:42:00.080Z, 70.5
2023-05-14T16:44:00.052Z, 70.7
2023-05-14T16:46:00.119Z, 72.4
2023-05-14T16:48:00.116Z, 70.8
2023-05-14T16:50:00.091Z, 70.9
2023-05-14T16:52:00.040Z, 70.5
2023-05-14T16:54:00.140Z, 68.5
2023-05-14T16:56:00.135Z, 64.9
2023-05-14T16:58:00.083Z, 63.6
2023-05-14T17:00:00.194Z, 63.5
2023-05-14T17:02:00.316Z, 63.6
2023-05-14T17:04:00.163Z, 62.9
2023-05-14T17:06:00.097Z, 60.8
2023-05-14T17:08:00.126Z, 59
2023-05-14T17:10:00.281Z, 58.9
2023-05-14T17:12:00.100Z, 59.4
2023-05-14T17:14:00.120Z, 60.8
2023-05-14T17:16:00.211Z, 61.5
2023-05-14T17:18:00.184Z, 60.4
2023-05-14T17:20:00.473Z, 60.8
2023-05-14T17:22:00.168Z, 59.9
2023-05-14T17:24:00.051Z, 59.3
2023-05-14T17:26:00.043Z, 58.9
2023-05-14T17:28:00.054Z, 59.4
2023-05-14T17:30:00.022Z, 59.2
2023-05-14T17:32:00.142Z, 61
2023-05-14T17:34:00.019Z, 63.1
2023-05-14T17:36:00.024Z, 67.5
2023-05-14T17:38:00.644Z, 69.8
2023-05-14T17:40:00.031Z, 73.6
2023-05-14T17:42:00.076Z, 75.8
2023-05-14T17:44:00.039Z, 76.6
2023-05-14T17:46:00.043Z, 76.3
2023-05-14T17:48:00.110Z, 76.2
2023-05-14T17:50:00.044Z, 77.3
2023-05-14T17:52:00.043Z, 77.9
2023-05-14T17:54:00.140Z, 78.5
2023-05-14T17:56:00.137Z, 78.9
2023-05-14T17:58:00.108Z, 79.7
2023-05-14T18:00:00.147Z, 80.7
2023-05-14T18:02:00.130Z, 80.9
2023-05-14T18:04:00.225Z, 80.9
2023-05-14T18:06:00.225Z, 81.6
2023-05-14T18:08:00.176Z, 80.6
2023-05-14T18:10:00.146Z, 78.7
2023-05-14T18:12:00.191Z, 76.7
2023-05-14T18:14:00.164Z, 76.7
2023-05-14T18:16:00.147Z, 76.2
2023-05-14T18:18:00.212Z, 76.8
2023-05-14T18:20:00.281Z, 76.7
2023-05-14T18:22:00.161Z, 77.6
2023-05-14T18:24:00.081Z, 77.8
2023-05-14T18:26:00.059Z, 76.9
2023-05-14T18:28:00.060Z, 76.3
2023-05-14T18:30:00.058Z, 75.2
2023-05-14T18:32:00.100Z, 74.4
2023-05-14T18:34:00.059Z, 70.6
2023-05-14T18:36:00.066Z, 72
2023-05-14T18:38:00.067Z, 70.7
2023-05-14T18:40:00.050Z, 71.4
2023-05-14T18:42:00.111Z, 70.5
2023-05-14T18:44:00.058Z, 67.8
2023-05-14T18:46:00.090Z, 67.7
2023-05-14T18:48:00.161Z, 68.1
2023-05-14T18:50:00.090Z, 66.6
2023-05-14T18:52:00.055Z, 67.1
2023-05-14T18:54:00.091Z, 68.5
2023-05-14T18:56:00.221Z, 67.3
2023-05-14T18:58:00.136Z, 70.4
2023-05-14T19:00:00.219Z, 71.6
2023-05-14T19:02:00.186Z, 72.6
2023-05-14T19:04:01.311Z, 73.8
2023-05-14T19:06:00.143Z, 74.4
2023-05-14T19:08:00.152Z, 72.4
2023-05-14T19:10:00.183Z, 72.8
2023-05-14T19:12:00.114Z, 71.5
2023-05-14T19:14:00.151Z, 68.8
2023-05-14T19:16:00.204Z, 69.1
2023-05-14T19:18:00.193Z, 68.2
2023-05-14T19:20:00.134Z, 66.7
2023-05-14T19:22:00.113Z, 66.6
2023-05-14T19:24:00.099Z, 67.1
2023-05-14T19:26:00.063Z, 67.9
2023-05-14T19:28:00.066Z, 69
2023-05-14T19:30:00.076Z, 69.7
2023-05-14T19:32:00.109Z, 70.3
2023-05-14T19:34:00.058Z, 70.3
2023-05-14T19:36:00.065Z, 70.5
2023-05-14T19:38:00.050Z, 71.4
2023-05-14T19:40:00.054Z, 72.7
2023-05-14T19:42:00.052Z, 73.2
2023-05-14T19:44:00.058Z, 73.4
2023-05-14T19:46:01.568Z, 73.2
2023-05-14T19:48:00.091Z, 72.7
2023-05-14T19:50:00.054Z, 73.1
2023-05-14T19:52:00.031Z, 73.5
2023-05-14T19:54:00.145Z, 73.8
2023-05-14T19:56:00.140Z, 73.6
2023-05-14T19:58:00.129Z, 74.8
2023-05-14T20:00:00.192Z, 77.6
2023-05-14T20:02:00.197Z, 79.5
2023-05-14T20:04:00.098Z, 80.6
2023-05-14T20:06:00.174Z, 81.1
2023-05-14T20:08:00.099Z, 81.7
2023-05-14T20:10:00.147Z, 81.8
2023-05-14T20:12:00.136Z, 81.5
2023-05-14T20:14:00.170Z, 81.1
2023-05-14T20:16:00.178Z, 80.6
2023-05-14T20:18:00.195Z, 80.6
2023-05-14T20:20:00.127Z, 80.9
2023-05-14T20:22:00.122Z, 81
2023-05-14T20:24:00.079Z, 80.6
2023-05-14T20:26:00.056Z, 81.1
2023-05-14T20:28:00.064Z, 82.8
2023-05-14T20:30:00.089Z, 84.1
2023-05-14T20:32:00.054Z, 84.7
2023-05-14T20:34:00.130Z, 84.4
2023-05-14T20:36:00.071Z, 83.9
2023-05-14T20:38:00.036Z, 83.6
2023-05-14T20:40:00.110Z, 83.3
2023-05-14T20:42:00.104Z, 83.2
2023-05-14T20:44:00.050Z, 83.2
2023-05-14T20:46:00.077Z, 85.6
2023-05-14T20:48:00.097Z, 86.5
2023-05-14T20:50:00.041Z, 85.5
2023-05-14T20:52:00.027Z, 84.1
2023-05-14T20:54:00.102Z, 84
2023-05-14T20:56:00.153Z, 84.6
2023-05-14T20:58:00.155Z, 84.7
2023-05-14T21:00:00.152Z, 85.2
2023-05-14T21:02:00.182Z, 85.7
2023-05-14T21:04:00.365Z, 85.5
2023-05-14T21:06:00.162Z, 85.1
2023-05-14T21:08:00.164Z, 84.6
2023-05-14T21:10:00.181Z, 84
2023-05-14T21:12:00.167Z, 83.6
2023-05-14T21:14:00.149Z, 83
2023-05-14T21:16:00.234Z, 82.9
2023-05-14T21:18:00.245Z, 83.3
2023-05-14T21:20:00.206Z, 83.9
2023-05-14T21:22:00.125Z, 84.1
2023-05-14T21:24:00.133Z, 84.7
2023-05-14T21:26:00.069Z, 85.5
2023-05-14T21:28:00.077Z, 86.2
2023-05-14T21:30:00.123Z, 86.5
2023-05-14T21:32:00.217Z, 86.9
2023-05-14T21:34:00.086Z, 88.5
2023-05-14T21:36:00.058Z, 89.3
2023-05-14T21:38:00.045Z, 89
2023-05-14T21:40:00.052Z, 87.9
2023-05-14T21:42:00.052Z, 86.4
2023-05-14T21:44:00.047Z, 85.6
2023-05-14T21:46:00.065Z, 84.5
2023-05-14T21:48:00.134Z, 84.6
2023-05-14T21:50:00.066Z, 84.3
2023-05-14T21:52:00.037Z, 83.4
2023-05-14T21:54:00.134Z, 83.5
2023-05-14T21:56:00.185Z, 83.3
2023-05-14T21:58:00.150Z, 84.3
2023-05-14T22:00:00.160Z, 87.8
2023-05-14T22:04:00.161Z, 90.1
2023-05-14T22:06:00.142Z, 89.2
2023-05-14T22:08:00.103Z, 88.2
2023-05-14T22:10:00.164Z, 87.6
2023-05-14T22:12:00.160Z, 87.9
2023-05-14T22:14:00.148Z, 88.6
2023-05-14T22:16:09.348Z, 88.8
2023-05-14T22:18:00.206Z, 88.1
2023-05-14T22:20:00.122Z, 86.5
2023-05-14T22:22:00.135Z, 85.7
2023-05-14T22:24:00.147Z, 84.6
2023-05-14T22:26:00.003Z, 84.1
2023-05-14T22:28:00.144Z, 84.3
2023-05-14T22:30:00.246Z, 84.8
2023-05-14T22:32:00.134Z, 85
2023-05-14T22:34:00.110Z, 85.1
2023-05-14T22:36:00.079Z, 86.2
2023-05-14T22:38:00.062Z, 87.5
2023-05-14T22:40:00.126Z, 89.2
2023-05-14T22:42:00.111Z, 90.4
2023-05-14T22:44:00.135Z, 90.9
2023-05-14T22:46:00.172Z, 90.9
2023-05-14T22:48:00.234Z, 90.6
2023-05-14T22:50:00.149Z, 90.1
2023-05-14T22:52:00.100Z, 89
2023-05-14T22:54:00.135Z, 88.2
2023-05-14T22:56:00.081Z, 87.9
2023-05-14T22:58:00.070Z, 88.8
2023-05-14T23:00:00.069Z, 91.3
2023-05-14T23:02:00.147Z, 91.6
2023-05-14T23:04:00.078Z, 91.3
2023-05-14T23:06:00.075Z, 90.9
2023-05-14T23:08:00.060Z, 90.4
2023-05-14T23:10:00.058Z, 90.3
2023-05-14T23:12:00.078Z, 91.2
2023-05-14T23:14:00.071Z, 92.2
2023-05-14T23:16:00.053Z, 92.6
2023-05-14T23:18:00.174Z, 93.5
2023-05-14T23:20:00.063Z, 94.9
2023-05-14T23:22:00.050Z, 96
2023-05-14T23:24:00.136Z, 96.2
2023-05-14T23:26:00.133Z, 96.4
2023-05-14T23:28:00.084Z, 96.5
2023-05-14T23:30:00.182Z, 96.5
2023-05-14T23:32:00.202Z, 96.2
2023-05-14T23:34:00.129Z, 95.6
2023-05-14T23:36:00.112Z, 95.1
2023-05-14T23:38:00.127Z, 95.5
2023-05-14T23:40:00.156Z, 96.1
2023-05-14T23:42:00.180Z, 96
2023-05-14T23:44:00.105Z, 95.1
2023-05-14T23:46:00.189Z, 93.8
2023-05-14T23:48:00.194Z, 91.9
2023-05-14T23:50:00.142Z, 91.3
2023-05-14T23:52:00.133Z, 91.4
2023-05-14T23:54:00.058Z, 92.2
2023-05-14T23:56:00.049Z, 93.3
2023-05-14T23:58:00.050Z, 94.9
